createdAt,value
2023-03-29T00:01:57.495Z,136.44
2023-03-29T00:02:57.535Z,137.59
2023-03-29T00:03:58.774Z,136.05
2023-03-29T00:05:57.417Z,136.14
2023-03-29T00:06:57.418Z,136.13
2023-03-29T00:09:57.393Z,136.19
2023-03-29T00:10:57.395Z,135.95
2023-03-29T00:11:57.387Z,135.53
2023-03-29T00:14:57.378Z,135.49
2023-03-29T00:15:57.402Z,135.54
2023-03-29T00:19:57.337Z,134.38
2023-03-29T00:21:57.337Z,135.30
2023-03-29T00:22:57.323Z,135.78
2023-03-29T00:23:57.338Z,135.38
2023-03-29T00:24:57.314Z,135.38
2023-03-29T00:25:57.328Z,133.35
2023-03-29T00:26:57.320Z,134.74
2023-03-29T00:27:57.318Z,135.06
2023-03-29T00:28:57.308Z,134.71
2023-03-29T00:29:57.319Z,134.95
2023-03-29T00:31:57.377Z,133.65
2023-03-29T00:32:57.439Z,134.40
2023-03-29T00:33:57.302Z,133.26
2023-03-29T00:35:57.357Z,134.37
2023-03-29T00:37:57.327Z,134.05
2023-03-29T00:38:57.305Z,134.03
2023-03-29T00:42:57.290Z,132.31
2023-03-29T00:44:57.283Z,134.50
2023-03-29T00:45:57.279Z,133.60
2023-03-29T00:47:57.559Z,132.61
2023-03-29T00:49:57.281Z,133.16
2023-03-29T00:53:57.239Z,133.41
2023-03-29T00:54:57.211Z,134.30
2023-03-29T00:57:57.213Z,133.46
2023-03-29T00:58:57.281Z,131.63
2023-03-29T00:59:57.207Z,133.56
2023-03-29T01:00:57.214Z,132.72
2023-03-29T01:04:57.196Z,132.53
2023-03-29T01:06:57.270Z,131.22
2023-03-29T01:07:57.180Z,132.60
2023-03-29T01:09:57.169Z,133.02
2023-03-29T01:10:57.166Z,133.43
2023-03-29T01:12:57.138Z,131.34
2023-03-29T01:13:57.158Z,133.25
2023-03-29T01:15:57.173Z,132.26
2023-03-29T01:18:57.121Z,131.82
2023-03-29T01:19:57.108Z,132.83
2023-03-29T01:21:57.065Z,132.22
2023-03-29T01:24:57.058Z,132.68
2023-03-29T01:25:57.060Z,132.15
2023-03-29T01:26:57.057Z,130.38
2023-03-29T01:30:57.002Z,132.09
2023-03-29T01:31:57.036Z,130.97
2023-03-29T01:34:56.953Z,131.41
2023-03-29T01:35:56.966Z,132.49
2023-03-29T01:39:56.882Z,131.81
2023-03-29T01:40:56.851Z,129.87
2023-03-29T01:41:56.870Z,132.68
2023-03-29T01:46:56.784Z,131.79
2023-03-29T01:48:56.745Z,130.22
2023-03-29T01:49:56.758Z,131.49
2023-03-29T01:51:56.729Z,132.16
2023-03-29T01:52:56.725Z,130.44
2023-03-29T01:55:56.681Z,132.10
2023-03-29T01:56:57.481Z,131.22
2023-03-29T01:57:56.674Z,130.02
2023-03-29T02:00:56.649Z,129.13
2023-03-29T02:01:56.817Z,129.65
2023-03-29T02:02:56.682Z,129.24
2023-03-29T02:06:56.556Z,130.43
2023-03-29T02:08:56.552Z,130.32
2023-03-29T02:10:56.543Z,129.74
2023-03-29T02:11:56.534Z,129.60
2023-03-29T02:13:56.496Z,130.71
2023-03-29T02:17:56.978Z,131.02
2023-03-29T02:19:56.456Z,129.09
2023-03-29T02:20:56.451Z,130.49
2023-03-29T02:21:56.492Z,128.69
2023-03-29T02:25:56.381Z,128.11
2023-03-29T02:27:56.396Z,129.68
2023-03-29T02:28:56.357Z,128.31
2023-03-29T02:29:56.384Z,129.59
2023-03-29T02:33:56.330Z,129.15
2023-03-29T02:36:56.324Z,127.56
2023-03-29T02:37:56.338Z,127.05
2023-03-29T02:38:56.307Z,128.94
2023-03-29T02:39:56.311Z,129.45
2023-03-29T02:41:56.310Z,128.97
2023-03-29T02:42:56.304Z,129.30
2023-03-29T02:43:56.305Z,128.37
2023-03-29T02:44:56.309Z,129.16
2023-03-29T02:47:56.406Z,128.50
2023-03-29T02:50:56.304Z,129.05
2023-03-29T02:51:56.292Z,128.57
2023-03-29T02:52:56.327Z,127.47
2023-03-29T02:56:56.375Z,129.65
2023-03-29T02:57:56.330Z,127.81
2023-03-29T02:58:56.328Z,126.98
2023-03-29T02:59:56.335Z,129.00
2023-03-29T03:00:56.369Z,129.27
2023-03-29T03:01:56.425Z,129.41
2023-03-29T03:02:56.475Z,127.60
2023-03-29T03:03:56.483Z,128.59
2023-03-29T03:07:56.425Z,128.13
2023-03-29T03:08:56.469Z,127.50
2023-03-29T03:14:56.464Z,126.93
2023-03-29T03:15:56.496Z,127.77
2023-03-29T03:17:56.506Z,127.36
2023-03-29T03:18:56.475Z,128.07
2023-03-29T03:20:56.482Z,126.94
2023-03-29T03:21:56.506Z,127.47
2023-03-29T03:23:56.517Z,128.15
2023-03-29T03:24:56.515Z,127.34
2023-03-29T03:25:56.529Z,128.12
2023-03-29T03:26:56.527Z,127.50
2023-03-29T03:27:56.546Z,126.75
2023-03-29T03:28:56.565Z,127.80
2023-03-29T03:29:56.562Z,126.39
2023-03-29T03:30:56.578Z,125.62
2023-03-29T03:31:56.613Z,126.61
2023-03-29T03:33:56.606Z,127.64
2023-03-29T03:34:56.652Z,126.70
2023-03-29T03:35:56.653Z,126.20
2023-03-29T03:36:56.629Z,126.09
2023-03-29T03:37:56.638Z,125.80
2023-03-29T03:38:56.645Z,126.09
2023-03-29T03:39:56.665Z,125.89
2023-03-29T03:40:56.674Z,127.17
2023-03-29T03:41:56.678Z,127.19
2023-03-29T03:44:56.695Z,127.13
2023-03-29T03:45:56.773Z,126.84
2023-03-29T03:47:56.747Z,126.41
2023-03-29T03:48:56.933Z,126.66
2023-03-29T03:49:56.748Z,126.89
2023-03-29T03:50:56.782Z,126.60
2023-03-29T03:51:56.760Z,126.88
2023-03-29T03:52:56.766Z,127.60
2023-03-29T03:53:56.797Z,125.85
2023-03-29T03:54:56.794Z,126.27
2023-03-29T03:55:56.820Z,127.52
2023-03-29T04:01:56.903Z,126.58
2023-03-29T04:02:56.934Z,125.84
2023-03-29T04:03:56.914Z,126.69
2023-03-29T04:04:56.882Z,126.62
2023-03-29T04:05:56.883Z,125.62
2023-03-29T04:06:56.889Z,126.65
2023-03-29T04:07:56.883Z,126.15
2023-03-29T04:08:56.909Z,125.07
2023-03-29T04:09:56.928Z,125.85
2023-03-29T04:10:56.947Z,124.73
2023-03-29T04:11:56.941Z,126.40
2023-03-29T04:12:56.937Z,126.95
2023-03-29T04:13:56.965Z,124.56
2023-03-29T04:16:56.989Z,125.37
2023-03-29T04:17:57.070Z,124.93
2023-03-29T04:18:57.048Z,125.29
2023-03-29T04:19:57.015Z,126.39
2023-03-29T04:20:57.035Z,124.57
2023-03-29T04:21:57.055Z,126.29
2023-03-29T04:22:57.050Z,124.71
2023-03-29T04:23:57.049Z,125.61
2023-03-29T04:24:57.084Z,124.87
2023-03-29T04:25:57.086Z,125.20
2023-03-29T04:26:57.090Z,125.62
2023-03-29T04:27:57.097Z,124.74
2023-03-29T04:28:57.131Z,124.80
2023-03-29T04:29:57.126Z,125.02
2023-03-29T04:30:57.210Z,123.73
2023-03-29T04:31:57.164Z,124.73
2023-03-29T04:32:57.185Z,123.85
2023-03-29T04:33:59.775Z,124.40
2023-03-29T04:36:57.215Z,125.35
2023-03-29T04:37:57.245Z,124.56
2023-03-29T04:38:57.257Z,125.46
2023-03-29T04:39:57.254Z,123.66
2023-03-29T04:40:57.287Z,125.20
2023-03-29T04:41:57.289Z,123.32
2023-03-29T04:44:57.323Z,124.63
2023-03-29T04:47:57.395Z,124.84
2023-03-29T04:48:57.344Z,125.00
2023-03-29T04:49:57.441Z,125.48
2023-03-29T04:51:57.338Z,124.92
2023-03-29T04:54:57.363Z,123.78
2023-03-29T04:55:57.377Z,123.48
2023-03-29T04:56:57.425Z,124.38
2023-03-29T04:57:57.382Z,124.62
2023-03-29T05:00:57.377Z,124.32
2023-03-29T05:02:57.413Z,124.19
2023-03-29T05:06:57.383Z,116.34
2023-03-29T05:07:57.334Z,116.57
2023-03-29T05:09:57.324Z,118.10
2023-03-29T05:10:57.301Z,117.67
2023-03-29T05:12:57.295Z,117.93
2023-03-29T05:14:57.280Z,116.15
2023-03-29T05:20:57.255Z,109.73
2023-03-29T05:21:57.256Z,108.92
2023-03-29T05:22:57.254Z,107.83
2023-03-29T05:23:57.262Z,106.72
2023-03-29T05:24:57.259Z,105.79
2023-03-29T05:25:57.263Z,104.54
2023-03-29T05:26:57.297Z,103.68
2023-03-29T05:27:57.265Z,103.74
2023-03-29T05:31:57.316Z,99.68
2023-03-29T05:34:57.242Z,105.39
2023-03-29T05:35:57.245Z,108.20
2023-03-29T05:37:57.319Z,116.22
2023-03-29T05:42:57.191Z,134.49
2023-03-29T05:43:57.184Z,140.13
2023-03-29T05:44:57.177Z,142.22
2023-03-29T05:45:57.309Z,146.47
2023-03-29T05:46:57.270Z,142.99
2023-03-29T05:49:57.156Z,149.71
2023-03-29T05:50:57.160Z,152.80
2023-03-29T05:52:57.159Z,155.55
2023-03-29T05:57:57.078Z,175.19
2023-03-29T05:58:57.057Z,182.51
2023-03-29T05:59:57.040Z,187.80
2023-03-29T06:00:57.491Z,191.88
2023-03-29T06:01:57.080Z,194.13
2023-03-29T06:03:03.735Z,200.45
2023-03-29T06:03:58.106Z,200.53
2023-03-29T06:05:57.274Z,203.42
2023-03-29T06:10:56.963Z,224.61
2023-03-29T06:11:57.487Z,225.78
2023-03-29T06:12:56.947Z,227.64
2023-03-29T06:13:56.928Z,228.61
2023-03-29T06:15:56.931Z,225.82
2023-03-29T06:16:56.977Z,222.25
2023-03-29T06:17:57.012Z,223.64
2023-03-29T06:21:56.874Z,250.04
2023-03-29T06:24:56.842Z,249.25
2023-03-29T06:25:56.845Z,249.54
2023-03-29T06:26:56.859Z,250.50
2023-03-29T06:28:56.813Z,249.17
2023-03-29T06:32:56.795Z,247.17
2023-03-29T06:34:56.778Z,248.78
2023-03-29T06:35:56.805Z,246.74
2023-03-29T06:36:56.768Z,246.38
2023-03-29T06:38:57.500Z,243.68
2023-03-29T06:41:56.704Z,238.87
2023-03-29T06:43:56.692Z,242.86
2023-03-29T06:44:56.702Z,239.35
2023-03-29T06:45:56.801Z,239.45
2023-03-29T06:46:56.741Z,237.79
2023-03-29T06:47:56.793Z,233.28
2023-03-29T06:48:56.919Z,232.71
2023-03-29T06:53:56.622Z,217.69
2023-03-29T06:55:56.612Z,216.54
2023-03-29T06:56:56.648Z,217.46
2023-03-29T06:57:56.593Z,213.99
2023-03-29T06:58:56.594Z,214.71
2023-03-29T06:59:56.562Z,217.46
2023-03-29T07:00:56.558Z,217.53
2023-03-29T07:01:56.652Z,214.19
2023-03-29T07:06:56.493Z,213.13
2023-03-29T07:07:56.532Z,209.21
2023-03-29T07:09:56.515Z,199.92
2023-03-29T07:10:56.478Z,198.14
2023-03-29T07:11:56.495Z,192.37
2023-03-29T07:13:56.478Z,185.83
2023-03-29T07:14:56.452Z,180.85
2023-03-29T07:15:56.555Z,175.18
2023-03-29T07:17:56.472Z,172.43
2023-03-29T07:21:56.576Z,158.94
2023-03-29T07:23:56.390Z,154.32
2023-03-29T07:24:56.378Z,149.50
2023-03-29T07:25:56.392Z,141.81
2023-03-29T07:27:04.161Z,139.38
2023-03-29T07:27:57.564Z,140.48
2023-03-29T07:29:56.574Z,122.70
2023-03-29T07:30:57.054Z,124.98
2023-03-29T07:32:56.552Z,121.97
2023-03-29T07:34:56.466Z,121.13
2023-03-29T07:35:56.536Z,121.28
2023-03-29T07:36:56.448Z,122.75
2023-03-29T07:38:56.500Z,132.28
2023-03-29T07:41:56.431Z,140.92
2023-03-29T07:44:56.334Z,148.45
2023-03-29T07:45:56.379Z,154.78
2023-03-29T07:46:56.305Z,144.58
2023-03-29T07:47:56.409Z,144.77
2023-03-29T07:49:56.279Z,149.14
2023-03-29T07:53:56.173Z,144.00
2023-03-29T07:54:56.287Z,146.59
2023-03-29T07:55:56.157Z,150.30
2023-03-29T07:56:56.214Z,151.36
2023-03-29T07:57:56.250Z,156.25
2023-03-29T07:58:56.189Z,154.84
2023-03-29T07:59:56.086Z,149.94
2023-03-29T08:02:56.089Z,155.60
2023-03-29T08:03:56.120Z,155.12
2023-03-29T08:06:55.989Z,147.10
2023-03-29T08:07:56.038Z,149.43
2023-03-29T08:08:55.946Z,146.28
2023-03-29T08:09:55.931Z,141.00
2023-03-29T08:10:56.001Z,109.94
2023-03-29T08:16:55.980Z,17.09
2023-03-29T08:17:55.881Z,13.09
2023-03-29T08:18:55.832Z,1.41
2023-03-29T08:19:55.866Z,3.59
2023-03-29T08:20:55.886Z,8.64
2023-03-29T08:21:55.984Z,19.14
2023-03-29T08:25:56.618Z,25.63
2023-03-29T08:27:56.047Z,26.35
2023-03-29T08:28:55.793Z,26.71
2023-03-29T08:29:55.815Z,27.25
2023-03-29T08:30:55.946Z,32.94
2023-03-29T08:31:55.909Z,42.31
2023-03-29T08:36:55.981Z,0.00
2023-03-29T08:37:56.549Z,0.00
2023-03-29T08:38:55.896Z,0.00
2023-03-29T08:39:55.915Z,0.00
2023-03-29T08:40:55.960Z,0.00
2023-03-29T08:41:56.150Z,0.00
2023-03-29T08:42:56.086Z,0.00
2023-03-29T08:43:56.099Z,0.00
2023-03-29T08:44:56.341Z,0.00
2023-03-29T08:46:56.220Z,5.93
2023-03-29T08:47:56.493Z,33.97
2023-03-29T08:48:56.304Z,43.49
2023-03-29T08:49:56.308Z,51.68
2023-03-29T08:50:56.357Z,58.95
2023-03-29T08:51:56.379Z,62.16
2023-03-29T08:52:56.396Z,64.67
2023-03-29T08:53:56.409Z,65.57
2023-03-29T08:54:56.458Z,64.46
2023-03-29T08:55:56.483Z,64.38
2023-03-29T08:56:56.474Z,67.62
2023-03-29T08:57:56.623Z,68.73
2023-03-29T08:59:56.535Z,77.99
2023-03-29T09:00:56.662Z,87.14
2023-03-29T09:04:56.530Z,77.96
2023-03-29T09:05:56.572Z,73.93
2023-03-29T09:06:56.645Z,69.85
2023-03-29T09:07:56.585Z,66.27
2023-03-29T09:09:56.659Z,61.80
2023-03-29T09:11:56.683Z,55.30
2023-03-29T09:14:56.730Z,52.48
2023-03-29T09:18:56.731Z,49.11
2023-03-29T09:19:56.741Z,46.82
2023-03-29T09:22:56.782Z,41.10
2023-03-29T09:23:57.082Z,40.06
2023-03-29T09:24:57.581Z,40.87
2023-03-29T09:26:56.846Z,39.50
2023-03-29T09:27:56.887Z,39.46
2023-03-29T09:28:56.922Z,39.76
2023-03-29T09:30:56.915Z,40.82
2023-03-29T09:31:57.021Z,41.75
2023-03-29T09:32:57.005Z,39.37
2023-03-29T09:34:56.998Z,35.10
2023-03-29T09:35:57.057Z,35.36
2023-03-29T09:36:57.070Z,33.36
2023-03-29T09:37:57.048Z,33.19
2023-03-29T09:38:57.572Z,56.38
2023-03-29T09:42:57.146Z,124.92
2023-03-29T09:43:57.197Z,138.52
2023-03-29T09:44:57.137Z,150.52
2023-03-29T09:45:57.234Z,157.71
2023-03-29T09:46:57.178Z,165.56
2023-03-29T09:49:57.183Z,178.06
2023-03-29T09:50:57.216Z,181.90
2023-03-29T09:51:58.977Z,184.10
2023-03-29T09:52:57.186Z,185.88
2023-03-29T09:53:57.189Z,188.23
2023-03-29T09:54:57.406Z,190.74
2023-03-29T09:56:57.222Z,193.32
2023-03-29T09:57:57.176Z,193.01
2023-03-29T09:58:57.201Z,194.39
2023-03-29T09:59:57.297Z,190.14
2023-03-29T10:02:57.328Z,186.38
2023-03-29T10:03:57.201Z,187.32
2023-03-29T10:04:57.187Z,183.09
2023-03-29T10:05:57.194Z,184.32
2023-03-29T10:09:57.255Z,190.21
2023-03-29T10:12:57.174Z,200.27
2023-03-29T10:13:57.166Z,203.17
2023-03-29T10:14:57.205Z,207.44
2023-03-29T10:15:57.278Z,207.38
2023-03-29T10:16:57.546Z,207.94
2023-03-29T10:18:57.131Z,209.48
2023-03-29T10:22:57.148Z,203.14
2023-03-29T10:23:57.111Z,199.07
2023-03-29T10:24:57.215Z,196.35
2023-03-29T10:25:57.115Z,195.68
2023-03-29T10:26:57.141Z,193.54
2023-03-29T10:27:57.130Z,191.24
2023-03-29T10:28:57.154Z,184.54
2023-03-29T10:29:57.124Z,164.80
2023-03-29T10:30:57.127Z,157.73
2023-03-29T10:33:57.100Z,157.21
2023-03-29T10:34:57.090Z,160.13
2023-03-29T10:35:57.338Z,166.92
2023-03-29T10:36:57.330Z,175.50
2023-03-29T10:37:57.375Z,175.91
2023-03-29T10:38:57.102Z,178.47
2023-03-29T10:39:57.600Z,178.73
2023-03-29T10:41:57.128Z,171.38
2023-03-29T10:43:57.099Z,176.48
2023-03-29T10:48:57.053Z,160.05
2023-03-29T10:49:57.399Z,160.68
2023-03-29T10:51:57.044Z,158.01
2023-03-29T10:52:57.015Z,158.13
2023-03-29T10:53:57.022Z,159.14
2023-03-29T10:58:57.035Z,178.23
2023-03-29T10:59:57.075Z,180.70
2023-03-29T11:00:56.983Z,183.85
2023-03-29T11:01:56.992Z,186.36
2023-03-29T11:03:57.066Z,188.29
2023-03-29T11:04:57.049Z,191.15
2023-03-29T11:05:56.936Z,189.58
2023-03-29T11:07:56.927Z,188.72
2023-03-29T11:08:57.633Z,190.91
2023-03-29T11:13:25.859Z,25.00
2023-03-29T11:15:26.063Z,25.00
2023-03-29T11:16:25.836Z,25.00
2023-03-29T11:18:25.743Z,18.74
2023-03-29T11:19:25.712Z,23.30
2023-03-29T11:22:25.642Z,25.00
2023-03-29T11:24:25.584Z,26.55
2023-03-29T11:26:25.532Z,27.25
2023-03-29T11:28:25.540Z,86.14
2023-03-29T11:29:25.462Z,80.97
2023-03-29T11:31:25.479Z,103.70
2023-03-29T11:34:25.326Z,167.58
2023-03-29T11:35:25.651Z,168.43
2023-03-29T11:37:25.232Z,189.68
2023-03-29T11:38:25.198Z,214.65
2023-03-29T11:41:25.128Z,247.37
2023-03-29T11:43:25.063Z,247.45
2023-03-29T11:44:25.042Z,245.10
2023-03-29T11:47:25.023Z,247.69
2023-03-29T11:50:24.879Z,229.56
2023-03-29T11:52:24.852Z,231.14
2023-03-29T11:53:25.022Z,227.65
2023-03-29T11:54:24.993Z,220.66
2023-03-29T12:00:24.578Z,209.51
2023-03-29T12:01:24.696Z,204.63
2023-03-29T12:02:24.605Z,203.35
2023-03-29T12:04:24.698Z,199.23
2023-03-29T12:05:24.444Z,202.15
2023-03-29T12:06:24.423Z,198.66
2023-03-29T12:11:24.323Z,193.88
2023-03-29T12:12:24.439Z,178.95
2023-03-29T12:13:24.263Z,180.57
2023-03-29T12:14:26.727Z,177.14
2023-03-29T12:15:24.749Z,175.25
2023-03-29T12:18:24.239Z,170.80
2023-03-29T12:19:24.199Z,176.36
2023-03-29T12:20:24.074Z,171.81
2023-03-29T12:23:24.008Z,165.91
2023-03-29T12:24:24.008Z,168.04
2023-03-29T12:25:24.129Z,159.49
2023-03-29T12:26:23.983Z,158.36
2023-03-29T12:27:24.634Z,159.78
2023-03-29T12:30:23.966Z,163.84
2023-03-29T12:33:23.786Z,164.89
2023-03-29T12:35:23.754Z,162.72
2023-03-29T12:36:23.741Z,166.23
2023-03-29T12:37:23.713Z,161.40
2023-03-29T12:39:23.672Z,169.38
2023-03-29T12:43:55.981Z,25.00
2023-03-29T12:44:55.949Z,25.00
2023-03-29T12:45:56.091Z,25.00
2023-03-29T12:46:55.863Z,25.00
2023-03-29T12:47:55.863Z,25.00
2023-03-29T12:48:55.794Z,28.03
2023-03-29T12:49:55.726Z,30.53
2023-03-29T12:50:55.716Z,27.22
2023-03-29T12:51:55.660Z,29.70
2023-03-29T12:52:55.725Z,25.00
2023-03-29T12:53:55.599Z,27.10
2023-03-29T12:54:55.493Z,31.72
2023-03-29T12:55:55.425Z,36.71
2023-03-29T12:56:55.424Z,33.04
2023-03-29T12:57:55.382Z,32.24
2023-03-29T12:58:55.266Z,28.93
2023-03-29T12:59:55.192Z,34.64
2023-03-29T13:00:55.162Z,34.87
2023-03-29T13:01:55.198Z,30.29
2023-03-29T13:02:55.069Z,25.32
2023-03-29T13:03:55.030Z,31.34
2023-03-29T13:04:55.063Z,31.45
2023-03-29T13:05:54.856Z,33.61
2023-03-29T13:06:54.847Z,26.47
2023-03-29T13:07:54.762Z,30.65
2023-03-29T13:08:54.699Z,30.69
2023-03-29T13:09:54.697Z,17.32
2023-03-29T13:10:54.593Z,16.21
2023-03-29T13:11:54.529Z,27.46
2023-03-29T13:12:54.503Z,27.51
2023-03-29T13:13:54.534Z,25.00
2023-03-29T13:14:54.481Z,34.22
2023-03-29T13:15:54.384Z,46.94
2023-03-29T13:16:54.264Z,47.21
2023-03-29T13:17:54.318Z,48.56
2023-03-29T13:18:54.137Z,51.82
2023-03-29T13:19:54.061Z,56.91
2023-03-29T13:20:54.010Z,58.77
2023-03-29T13:21:53.976Z,61.67
2023-03-29T13:22:53.986Z,61.25
2023-03-29T13:23:53.834Z,53.39
2023-03-29T13:24:53.922Z,51.84
2023-03-29T13:25:53.868Z,42.84
2023-03-29T13:26:53.869Z,43.44
2023-03-29T13:27:53.916Z,39.01
2023-03-29T13:28:55.031Z,32.88
2023-03-29T13:29:53.872Z,32.06
2023-03-29T13:30:54.016Z,27.21
2023-03-29T13:31:53.740Z,31.61
2023-03-29T13:32:53.755Z,28.47
2023-03-29T13:33:54.084Z,29.85
2023-03-29T13:34:54.192Z,25.39
2023-03-29T13:35:53.586Z,28.49
2023-03-29T13:36:53.512Z,29.57
2023-03-29T13:37:53.445Z,25.00
2023-03-29T13:38:53.406Z,28.51
2023-03-29T13:39:54.099Z,28.95
2023-03-29T13:40:53.312Z,29.81
2023-03-29T13:41:53.258Z,33.33
2023-03-29T13:42:53.213Z,25.00
2023-03-29T13:43:53.125Z,29.19
2023-03-29T13:44:53.073Z,25.99
2023-03-29T13:45:53.118Z,26.32
2023-03-29T13:46:53.040Z,25.98
2023-03-29T13:48:04.603Z,26.11
2023-03-29T13:48:53.895Z,26.15
2023-03-29T13:49:52.784Z,23.83
2023-03-29T13:50:52.853Z,24.49
2023-03-29T13:51:52.721Z,24.68
2023-03-29T13:52:52.667Z,21.31
2023-03-29T13:53:52.613Z,28.13
2023-03-29T13:54:52.731Z,27.51
2023-03-29T13:55:52.542Z,25.00
2023-03-29T13:56:52.570Z,25.00
2023-03-29T13:57:53.367Z,24.04
2023-03-29T13:58:53.122Z,27.86
2023-03-29T13:59:52.549Z,29.13
2023-03-29T14:00:52.529Z,25.88
2023-03-29T14:01:52.449Z,19.90
2023-03-29T14:02:52.529Z,21.38
2023-03-29T14:03:52.347Z,24.59
2023-03-29T14:04:52.341Z,22.31
2023-03-29T14:05:52.277Z,26.93
2023-03-29T14:06:52.267Z,29.06
2023-03-29T14:07:52.195Z,25.00
2023-03-29T14:08:52.167Z,26.01
2023-03-29T14:09:52.197Z,25.44
2023-03-29T14:10:52.221Z,29.17
2023-03-29T14:11:52.235Z,29.00
2023-03-29T14:12:52.288Z,27.99
2023-03-29T14:13:52.272Z,34.86
2023-03-29T14:14:59.314Z,28.19
2023-03-29T14:15:52.314Z,21.38
2023-03-29T14:16:52.216Z,24.89
2023-03-29T14:17:52.191Z,28.39
2023-03-29T14:18:52.138Z,24.93
2023-03-29T14:19:52.086Z,27.74
2023-03-29T14:20:51.983Z,27.75
2023-03-29T14:21:52.034Z,32.43
2023-03-29T14:22:51.897Z,31.21
2023-03-29T14:23:51.886Z,24.42
2023-03-29T14:24:51.999Z,26.50
2023-03-29T14:25:51.926Z,32.32
2023-03-29T14:26:51.947Z,34.68
2023-03-29T14:27:51.961Z,34.11
2023-03-29T14:28:51.996Z,29.12
2023-03-29T14:29:51.959Z,25.79
2023-03-29T14:30:51.980Z,35.01
2023-03-29T14:31:52.027Z,33.53
2023-03-29T14:32:52.109Z,33.98
2023-03-29T14:33:52.072Z,32.42
2023-03-29T14:34:52.060Z,39.00
2023-03-29T14:35:52.167Z,48.30
2023-03-29T14:36:52.115Z,39.99
2023-03-29T14:37:52.104Z,37.72
2023-03-29T14:38:52.143Z,34.88
2023-03-29T14:39:52.096Z,38.87
2023-03-29T14:40:52.107Z,40.45
2023-03-29T14:41:52.173Z,33.13
2023-03-29T14:42:52.189Z,26.94
2023-03-29T14:43:52.158Z,28.88
2023-03-29T14:44:52.177Z,38.29
2023-03-29T14:45:52.199Z,34.99
2023-03-29T14:46:52.176Z,44.19
2023-03-29T14:47:52.223Z,44.55
2023-03-29T14:48:52.165Z,45.80
2023-03-29T14:49:52.127Z,51.21
2023-03-29T14:50:52.094Z,49.59
2023-03-29T14:51:52.099Z,34.15
2023-03-29T14:52:52.465Z,50.04
2023-03-29T14:53:52.123Z,52.65
2023-03-29T14:54:52.053Z,53.02
2023-03-29T14:55:52.060Z,53.32
2023-03-29T14:56:52.064Z,53.37
2023-03-29T14:57:52.021Z,57.39
2023-03-29T14:58:52.031Z,57.74
2023-03-29T14:59:52.001Z,58.27
2023-03-29T15:00:52.020Z,62.28
2023-03-29T15:01:52.025Z,62.66
2023-03-29T15:02:52.068Z,52.26
2023-03-29T15:03:54.122Z,56.09
2023-03-29T15:04:51.935Z,56.81
2023-03-29T15:05:51.878Z,60.45
2023-03-29T15:06:51.827Z,59.56
2023-03-29T15:07:51.786Z,62.88
2023-03-29T15:09:04.195Z,66.22
2023-03-29T15:09:52.696Z,66.43
2023-03-29T15:10:51.644Z,66.63
2023-03-29T15:11:51.611Z,68.62
2023-03-29T15:12:51.586Z,68.90
2023-03-29T15:13:51.537Z,68.97
2023-03-29T15:14:51.474Z,72.04
2023-03-29T15:15:51.453Z,73.86
2023-03-29T15:16:51.395Z,69.39
2023-03-29T15:17:52.560Z,74.12
2023-03-29T15:18:51.323Z,72.51
2023-03-29T15:19:51.245Z,75.44
2023-03-29T15:20:51.188Z,75.34
2023-03-29T15:21:51.134Z,77.70
2023-03-29T15:22:51.091Z,78.22
2023-03-29T15:23:51.047Z,78.98
2023-03-29T15:24:51.005Z,80.79
2023-03-29T15:25:50.947Z,79.04
2023-03-29T15:26:50.918Z,79.17
2023-03-29T15:27:50.882Z,72.47
2023-03-29T15:28:50.856Z,74.23
2023-03-29T15:29:50.825Z,80.40
2023-03-29T15:31:00.818Z,79.55
2023-03-29T15:31:51.766Z,79.79
2023-03-29T15:32:50.715Z,80.49
2023-03-29T15:33:50.633Z,81.09
2023-03-29T15:34:50.563Z,81.66
2023-03-29T15:35:50.582Z,83.78
2023-03-29T15:36:50.481Z,83.99
2023-03-29T15:37:50.416Z,84.29
2023-03-29T15:38:50.347Z,83.53
2023-03-29T15:39:50.313Z,82.65
2023-03-29T15:40:50.329Z,87.53
2023-03-29T15:41:50.194Z,88.26
2023-03-29T15:42:50.139Z,83.55
2023-03-29T15:43:50.084Z,84.87
2023-03-29T15:44:50.048Z,84.08
2023-03-29T15:45:50.015Z,83.34
2023-03-29T15:46:50.012Z,83.93
2023-03-29T15:47:49.940Z,87.06
2023-03-29T15:48:49.845Z,88.43
2023-03-29T15:49:49.783Z,90.10
2023-03-29T15:50:49.749Z,88.94
2023-03-29T15:51:49.685Z,87.92
2023-03-29T15:52:49.628Z,89.34
2023-03-29T15:53:49.587Z,89.83
2023-03-29T15:54:49.533Z,93.59
2023-03-29T15:55:49.488Z,94.74
2023-03-29T15:56:49.499Z,93.90
2023-03-29T15:57:49.435Z,93.95
2023-03-29T15:58:49.414Z,94.68
2023-03-29T15:59:49.305Z,98.80
2023-03-29T16:00:49.243Z,99.32
2023-03-29T16:01:49.236Z,101.73
2023-03-29T16:02:49.553Z,104.48
2023-03-29T16:03:49.045Z,103.17
2023-03-29T16:04:48.970Z,106.97
2023-03-29T16:05:48.922Z,105.52
2023-03-29T16:06:48.941Z,107.74
2023-03-29T16:07:48.821Z,107.57
2023-03-29T16:08:48.777Z,108.46
2023-03-29T16:09:48.735Z,112.01
2023-03-29T16:10:48.683Z,111.46
2023-03-29T16:11:48.631Z,111.22
2023-03-29T16:12:48.568Z,114.70
2023-03-29T16:13:48.566Z,115.30
2023-03-29T16:14:48.495Z,117.01
2023-03-29T16:15:48.437Z,116.05
2023-03-29T16:16:48.398Z,117.17
2023-03-29T16:17:48.354Z,118.01
2023-03-29T16:18:48.328Z,118.17
2023-03-29T16:19:48.231Z,119.63
2023-03-29T16:20:48.183Z,119.72
2023-03-29T16:21:48.165Z,122.99
2023-03-29T16:22:48.100Z,121.97
2023-03-29T16:23:48.047Z,122.36
2023-03-29T16:24:47.987Z,124.82
2023-03-29T16:25:47.950Z,120.84
2023-03-29T16:26:47.885Z,120.96
2023-03-29T16:27:47.838Z,123.82
2023-03-29T16:28:47.824Z,123.77
2023-03-29T16:29:47.754Z,124.45
2023-03-29T16:30:47.688Z,126.89
2023-03-29T16:31:47.666Z,124.85
2023-03-29T16:32:47.625Z,125.66
2023-03-29T16:33:47.533Z,127.08
2023-03-29T16:34:47.486Z,122.07
2023-03-29T16:35:47.527Z,127.21
2023-03-29T16:36:47.396Z,124.83
2023-03-29T16:37:47.334Z,121.62
2023-03-29T16:38:47.294Z,125.04
2023-03-29T16:39:47.257Z,126.78
2023-03-29T16:40:47.188Z,128.15
2023-03-29T16:41:47.146Z,126.87
2023-03-29T16:42:47.233Z,126.29
2023-03-29T16:43:47.039Z,128.39
2023-03-29T16:44:46.980Z,128.33
2023-03-29T16:45:46.966Z,124.79
2023-03-29T16:46:46.893Z,126.25
2023-03-29T16:47:46.851Z,127.19
2023-03-29T16:48:46.775Z,126.88
2023-03-29T16:49:46.746Z,129.72
2023-03-29T16:50:46.748Z,126.97
2023-03-29T16:51:46.657Z,127.42
2023-03-29T16:52:46.623Z,129.38
2023-03-29T16:53:46.631Z,129.26
2023-03-29T16:54:46.674Z,128.90
2023-03-29T16:55:46.502Z,129.85
2023-03-29T16:56:46.515Z,128.02
2023-03-29T16:57:46.436Z,126.50
2023-03-29T16:58:46.400Z,129.75
2023-03-29T16:59:46.417Z,126.83
2023-03-29T17:00:48.171Z,127.67
2023-03-29T17:01:46.419Z,127.85
2023-03-29T17:02:46.237Z,128.21
2023-03-29T17:03:46.160Z,127.66
2023-03-29T17:04:46.154Z,127.27
2023-03-29T17:05:46.044Z,127.00
2023-03-29T17:06:46.004Z,130.14
2023-03-29T17:07:46.186Z,129.85
2023-03-29T17:08:45.905Z,132.10
2023-03-29T17:09:45.848Z,130.78
2023-03-29T17:10:45.819Z,130.41
2023-03-29T17:11:45.761Z,127.65
2023-03-29T17:12:45.660Z,123.42
2023-03-29T17:13:45.605Z,126.42
2023-03-29T17:14:45.540Z,128.95
2023-03-29T17:15:45.550Z,127.49
2023-03-29T17:16:45.462Z,126.98
2023-03-29T17:17:45.400Z,127.30
2023-03-29T17:18:45.310Z,127.31
2023-03-29T17:19:45.275Z,126.25
2023-03-29T17:20:45.206Z,125.43
2023-03-29T17:21:45.157Z,128.17
2023-03-29T17:22:45.124Z,129.40
2023-03-29T17:23:45.049Z,129.52
2023-03-29T17:24:44.989Z,131.02
2023-03-29T17:25:44.941Z,129.18
2023-03-29T17:26:45.959Z,127.36
2023-03-29T17:27:44.841Z,130.54
2023-03-29T17:28:44.805Z,129.73
2023-03-29T17:29:44.785Z,131.04
2023-03-29T17:30:44.717Z,129.00
2023-03-29T17:31:44.790Z,127.90
2023-03-29T17:32:44.672Z,128.50
2023-03-29T17:33:44.611Z,126.43
2023-03-29T17:34:44.582Z,130.06
2023-03-29T17:35:44.609Z,129.01
2023-03-29T17:36:44.513Z,125.16
2023-03-29T17:37:44.489Z,125.86
2023-03-29T17:38:44.452Z,125.77
2023-03-29T17:39:44.431Z,125.78
2023-03-29T17:40:44.388Z,126.97